createdAt,value
2023-02-03T00:00:37.050Z,0
2023-02-03T00:02:20.732Z,0
2023-02-03T00:04:04.390Z,0
2023-02-03T00:05:48.092Z,0
2023-02-03T00:07:31.801Z,0
2023-02-03T00:09:15.532Z,0
2023-02-03T00:10:59.216Z,0
2023-02-03T00:12:42.916Z,0
2023-02-03T00:14:26.614Z,0
2023-02-03T00:16:10.320Z,0
2023-02-03T00:17:54.039Z,0
2023-02-03T00:19:37.718Z,0
2023-02-03T00:21:21.459Z,0
2023-02-03T00:23:05.292Z,0
2023-02-03T00:24:48.862Z,0
2023-02-03T00:26:32.546Z,1
2023-02-03T00:28:16.239Z,0
2023-02-03T00:29:59.933Z,0
2023-02-03T00:31:43.732Z,0
2023-02-03T00:33:27.405Z,0
2023-02-03T00:35:11.160Z,0
2023-02-03T00:36:54.740Z,0
2023-02-03T00:38:38.468Z,0
2023-02-03T00:40:22.251Z,0
2023-02-03T00:42:05.867Z,0
2023-02-03T00:43:49.590Z,0
2023-02-03T00:45:33.256Z,0
2023-02-03T00:47:16.951Z,0
2023-02-03T00:49:00.700Z,0
2023-02-03T00:50:44.456Z,0
2023-02-03T00:52:28.052Z,0
2023-02-03T00:54:11.936Z,0
2023-02-03T00:55:55.511Z,0
2023-02-03T00:57:39.155Z,1
2023-02-03T00:59:22.919Z,0
2023-02-03T01:01:06.567Z,0
2023-02-03T01:02:50.277Z,0
2023-02-03T01:04:34.009Z,0
2023-02-03T01:06:17.657Z,0
2023-02-03T01:08:01.488Z,0
2023-02-03T01:09:45.060Z,0
2023-02-03T01:11:28.913Z,0
2023-02-03T01:13:12.487Z,0
2023-02-03T01:14:56.292Z,0
2023-02-03T01:16:39.962Z,0
2023-02-03T01:18:23.587Z,0
2023-02-03T01:20:07.281Z,0
2023-02-03T01:21:50.967Z,0
2023-02-03T01:23:34.681Z,0
2023-02-03T01:25:18.374Z,0
2023-02-03T01:27:02.098Z,0
2023-02-03T01:28:45.806Z,1
2023-02-03T01:30:29.506Z,0
2023-02-03T01:32:13.186Z,0
2023-02-03T01:33:57.001Z,0
2023-02-03T01:35:40.705Z,0
2023-02-03T01:37:24.431Z,0
2023-02-03T01:39:08.054Z,0
2023-02-03T01:40:51.698Z,0
2023-02-03T01:42:35.495Z,0
2023-02-03T01:44:19.122Z,0
2023-02-03T01:46:02.801Z,0
2023-02-03T01:47:46.512Z,0
2023-02-03T01:49:30.311Z,0
2023-02-03T01:51:13.955Z,0
2023-02-03T01:52:57.748Z,0
2023-02-03T01:54:41.330Z,0
2023-02-03T01:56:25.032Z,0
2023-02-03T01:58:08.715Z,0
2023-02-03T01:59:52.400Z,0
2023-02-03T02:01:36.177Z,0
2023-02-03T02:03:19.876Z,0
2023-02-03T02:05:03.562Z,0
2023-02-03T02:06:47.222Z,0
2023-02-03T02:08:30.920Z,0
2023-02-03T02:10:14.624Z,0
2023-02-03T02:11:58.344Z,0
2023-02-03T02:13:42.098Z,0
2023-02-03T02:15:25.800Z,0
2023-02-03T02:17:09.429Z,0
2023-02-03T02:18:53.142Z,0
2023-02-03T02:20:36.862Z,0
2023-02-03T02:22:20.534Z,0
2023-02-03T02:24:04.242Z,0
2023-02-03T02:25:47.963Z,0
2023-02-03T02:27:31.674Z,0
2023-02-03T02:29:15.569Z,0
2023-02-03T02:30:59.145Z,0
2023-02-03T02:32:42.757Z,0
2023-02-03T02:34:26.572Z,0
2023-02-03T02:36:10.243Z,0
2023-02-03T02:37:53.861Z,0
2023-02-03T02:39:37.585Z,0
2023-02-03T02:41:21.413Z,0
2023-02-03T02:43:05.111Z,0
2023-02-03T02:44:48.734Z,0
2023-02-03T02:46:32.360Z,0
2023-02-03T02:48:16.132Z,1
2023-02-03T02:51:43.474Z,0
2023-02-03T02:53:27.175Z,0
2023-02-03T02:55:10.879Z,0
2023-02-03T02:56:54.578Z,0
2023-02-03T02:58:38.318Z,0
2023-02-03T03:00:21.992Z,0
2023-02-03T03:02:05.681Z,0
2023-02-03T03:03:49.482Z,0
2023-02-03T03:05:33.095Z,1
2023-02-03T03:07:16.795Z,0
2023-02-03T03:09:00.496Z,0
2023-02-03T03:10:44.224Z,0
2023-02-03T03:12:27.920Z,0
2023-02-03T03:14:11.618Z,0
2023-02-03T03:15:55.314Z,0
2023-02-03T03:17:38.996Z,0
2023-02-03T03:19:22.710Z,0
2023-02-03T03:21:06.476Z,0
2023-02-03T03:22:50.111Z,0
2023-02-03T03:24:33.804Z,1
2023-02-03T03:26:17.558Z,0
2023-02-03T03:28:01.226Z,0
2023-02-03T03:29:45.019Z,1
2023-02-03T03:31:28.653Z,0
2023-02-03T03:33:12.378Z,0
2023-02-03T03:34:56.038Z,0
2023-02-03T03:36:39.753Z,0
2023-02-03T03:38:23.463Z,0
2023-02-03T03:40:07.130Z,0
2023-02-03T03:41:50.846Z,0
2023-02-03T03:43:34.541Z,0
2023-02-03T03:45:18.373Z,0
2023-02-03T03:47:01.952Z,0
2023-02-03T03:48:45.634Z,0
2023-02-03T03:50:29.347Z,0
2023-02-03T03:52:13.098Z,0
2023-02-03T03:53:56.751Z,0
2023-02-03T03:55:40.480Z,0
2023-02-03T03:57:24.186Z,0
2023-02-03T03:59:07.949Z,0
2023-02-03T04:00:51.698Z,0
2023-02-03T04:02:35.455Z,0
2023-02-03T04:04:19.032Z,0
2023-02-03T04:06:02.665Z,0
2023-02-03T04:07:46.361Z,0
2023-02-03T04:09:30.060Z,0
2023-02-03T04:11:13.828Z,0
2023-02-03T04:12:57.499Z,0
2023-02-03T04:14:41.206Z,0
2023-02-03T04:16:24.891Z,0
2023-02-03T04:18:08.600Z,0
2023-02-03T04:19:52.298Z,0
2023-02-03T04:21:36.009Z,0
2023-02-03T04:23:19.711Z,0
2023-02-03T04:25:03.394Z,0
2023-02-03T04:26:47.105Z,0
2023-02-03T04:28:30.788Z,0
2023-02-03T04:30:14.516Z,0
2023-02-03T04:31:58.266Z,0
2023-02-03T04:33:41.896Z,0
2023-02-03T04:35:25.601Z,0
2023-02-03T04:37:09.303Z,0
2023-02-03T04:38:52.990Z,0
2023-02-03T04:40:36.717Z,0
2023-02-03T04:42:20.406Z,1
2023-02-03T04:44:04.108Z,0
2023-02-03T04:45:47.806Z,0
2023-02-03T04:47:31.502Z,0
2023-02-03T04:49:15.227Z,0
2023-02-03T04:50:58.918Z,0
2023-02-03T04:52:42.665Z,0
2023-02-03T04:54:26.427Z,0
2023-02-03T04:56:10.023Z,0
2023-02-03T04:57:53.741Z,0
2023-02-03T04:59:37.450Z,0
2023-02-03T05:01:21.133Z,0
2023-02-03T05:03:04.857Z,0
2023-02-03T05:04:48.544Z,0
2023-02-03T05:06:32.243Z,0
2023-02-03T05:08:15.921Z,0
2023-02-03T05:09:59.640Z,0
2023-02-03T05:11:43.436Z,0
2023-02-03T05:13:27.037Z,0
2023-02-03T05:15:10.741Z,0
2023-02-03T05:16:54.482Z,0
2023-02-03T05:18:38.165Z,0
2023-02-03T05:20:21.882Z,0
2023-02-03T05:22:05.591Z,0
2023-02-03T05:23:49.251Z,0
2023-02-03T05:25:33.118Z,1
2023-02-03T05:27:16.664Z,0
2023-02-03T05:29:00.357Z,0
2023-02-03T05:30:44.096Z,0
2023-02-03T05:32:27.762Z,0
2023-02-03T05:34:11.521Z,0
2023-02-03T05:35:55.245Z,0
2023-02-03T05:37:38.900Z,0
2023-02-03T05:39:22.598Z,0
2023-02-03T05:41:06.418Z,0
2023-02-03T05:42:50.096Z,0
2023-02-03T05:44:33.779Z,0
2023-02-03T05:46:17.408Z,0
2023-02-03T05:48:01.235Z,0
2023-02-03T05:49:44.827Z,0
2023-02-03T05:51:28.527Z,0
2023-02-03T05:53:12.249Z,0
2023-02-03T05:54:55.887Z,0
2023-02-03T05:56:39.587Z,1
2023-02-03T05:58:23.308Z,0
2023-02-03T06:00:06.975Z,0
2023-02-03T06:01:50.708Z,0
2023-02-03T06:03:34.529Z,0
2023-02-03T06:05:18.160Z,0
2023-02-03T06:07:01.874Z,0
2023-02-03T06:08:45.657Z,0
2023-02-03T06:10:29.214Z,0
2023-02-03T06:12:12.928Z,0
2023-02-03T06:13:56.605Z,0
2023-02-03T06:15:40.325Z,0
2023-02-03T06:17:24.039Z,0
2023-02-03T06:19:07.705Z,0
2023-02-03T06:20:51.478Z,0
2023-02-03T06:22:35.174Z,0
2023-02-03T06:24:18.826Z,0
2023-02-03T06:26:02.523Z,0
2023-02-03T06:27:46.247Z,0
2023-02-03T06:29:30.034Z,0
2023-02-03T06:31:13.690Z,0
2023-02-03T06:32:57.360Z,0
2023-02-03T06:34:41.165Z,0
2023-02-03T06:36:24.842Z,0
2023-02-03T06:38:08.434Z,0
2023-02-03T06:39:52.189Z,0
2023-02-03T06:41:35.891Z,0
2023-02-03T06:43:19.584Z,1
2023-02-03T06:45:03.236Z,1
2023-02-03T06:46:47.041Z,1
2023-02-03T06:48:30.678Z,1
2023-02-03T06:50:14.369Z,1
2023-02-03T06:51:58.069Z,1
2023-02-03T06:53:41.752Z,1
2023-02-03T06:55:25.524Z,2
2023-02-03T06:57:09.184Z,2
2023-02-03T06:58:52.891Z,2
2023-02-03T07:00:36.563Z,2
2023-02-03T07:02:20.268Z,3
2023-02-03T07:04:04.091Z,4
2023-02-03T07:05:47.759Z,4
2023-02-03T07:07:31.362Z,5
2023-02-03T07:09:15.190Z,5
2023-02-03T07:10:58.786Z,7
2023-02-03T07:12:42.485Z,7
2023-02-03T07:14:26.202Z,7
2023-02-03T07:16:09.911Z,10
2023-02-03T07:17:53.564Z,14
2023-02-03T07:19:37.297Z,12
2023-02-03T07:21:21.024Z,176
2023-02-03T07:23:04.674Z,175
2023-02-03T07:24:48.386Z,240
2023-02-03T07:26:32.133Z,281
2023-02-03T07:28:15.782Z,299
2023-02-03T07:29:59.525Z,257
2023-02-03T07:31:43.295Z,209
2023-02-03T07:33:26.926Z,230
2023-02-03T07:35:10.629Z,265
2023-02-03T07:36:54.335Z,316
2023-02-03T07:38:37.987Z,278
2023-02-03T07:40:21.728Z,236
2023-02-03T07:42:05.400Z,238
2023-02-03T07:43:49.101Z,208
2023-02-03T07:45:32.878Z,213
2023-02-03T07:47:16.572Z,259
2023-02-03T07:49:00.269Z,227
2023-02-03T07:50:44.024Z,273
2023-02-03T07:52:28.367Z,302
2023-02-03T07:54:11.827Z,324
2023-02-03T07:55:55.172Z,293
2023-02-03T07:57:39.033Z,235
2023-02-03T07:59:22.677Z,240
2023-02-03T08:02:49.848Z,224
2023-02-03T08:04:33.680Z,200
2023-02-03T08:06:17.368Z,261
2023-02-03T08:08:01.088Z,352
2023-02-03T08:09:44.708Z,334
2023-02-03T08:11:28.510Z,357
2023-02-03T08:13:12.064Z,347
2023-02-03T08:14:55.804Z,318
2023-02-03T08:16:39.469Z,378
2023-02-03T08:18:23.162Z,412
2023-02-03T08:20:06.949Z,547
2023-02-03T08:21:50.608Z,443
2023-02-03T08:23:34.279Z,458
2023-02-03T08:25:17.998Z,431
2023-02-03T08:27:01.682Z,409
2023-02-03T08:28:45.398Z,354
2023-02-03T08:30:29.127Z,343
2023-02-03T08:32:12.913Z,379
2023-02-03T08:33:56.636Z,389
2023-02-03T08:35:40.240Z,381
2023-02-03T08:37:23.957Z,424
2023-02-03T08:39:07.583Z,573
2023-02-03T08:40:51.404Z,652
2023-02-03T08:42:35.139Z,697
2023-02-03T08:44:18.767Z,568
2023-02-03T08:46:02.384Z,384
2023-02-03T08:47:46.085Z,390
2023-02-03T08:49:29.904Z,504
2023-02-03T08:51:13.499Z,523
2023-02-03T08:52:57.334Z,515
2023-02-03T08:54:40.988Z,620
2023-02-03T08:56:24.712Z,479
2023-02-03T08:58:08.507Z,348
2023-02-03T08:59:51.679Z,387
2023-02-03T09:01:35.450Z,325
2023-02-03T09:03:19.233Z,538
2023-02-03T09:05:02.822Z,588
2023-02-03T09:06:46.505Z,500
2023-02-03T09:08:30.273Z,449
2023-02-03T09:10:13.937Z,442
2023-02-03T09:11:57.660Z,297
2023-02-03T09:13:41.325Z,506
2023-02-03T09:15:25.019Z,581
2023-02-03T09:17:08.749Z,675
2023-02-03T09:18:52.446Z,603
2023-02-03T09:20:36.148Z,643
2023-02-03T09:22:20.144Z,515
2023-02-03T09:24:03.585Z,630
2023-02-03T09:25:47.350Z,774
2023-02-03T09:27:30.925Z,774
2023-02-03T09:29:14.639Z,774
2023-02-03T09:30:58.446Z,774
2023-02-03T09:32:42.206Z,774
2023-02-03T09:34:25.946Z,598
2023-02-03T09:36:09.481Z,573
2023-02-03T09:37:53.139Z,541
2023-02-03T09:39:36.946Z,663
2023-02-03T09:41:20.640Z,774
2023-02-03T09:43:04.372Z,774
2023-02-03T09:44:48.000Z,775
2023-02-03T09:46:31.730Z,774
2023-02-03T09:48:15.371Z,775
2023-02-03T09:49:59.205Z,775
2023-02-03T09:51:42.832Z,774
2023-02-03T09:53:26.457Z,774
2023-02-03T09:55:10.233Z,775
2023-02-03T09:56:54.074Z,774
2023-02-03T09:58:37.636Z,774
2023-02-03T10:00:21.305Z,775
2023-02-03T10:02:05.093Z,775
2023-02-03T10:03:48.760Z,775
2023-02-03T10:05:32.395Z,772
2023-02-03T10:07:16.099Z,775
2023-02-03T10:08:59.831Z,775
2023-02-03T10:10:43.787Z,775
2023-02-03T10:12:27.287Z,776
2023-02-03T10:14:10.900Z,775
2023-02-03T10:15:54.673Z,775
2023-02-03T10:17:38.333Z,775
2023-02-03T10:19:21.974Z,775
2023-02-03T10:21:05.671Z,774
2023-02-03T10:22:49.422Z,775
2023-02-03T10:24:33.080Z,776
2023-02-03T10:26:16.780Z,775
2023-02-03T10:28:00.502Z,775
2023-02-03T10:29:44.209Z,775
2023-02-03T10:31:28.035Z,775
2023-02-03T10:33:11.653Z,775
2023-02-03T10:34:55.302Z,773
2023-02-03T10:36:39.063Z,775
2023-02-03T10:38:22.704Z,775
2023-02-03T10:40:06.498Z,775
2023-02-03T10:41:50.234Z,775
2023-02-03T10:43:33.797Z,775
2023-02-03T10:45:17.500Z,775
2023-02-03T10:47:01.224Z,775
2023-02-03T10:48:44.903Z,775
2023-02-03T10:50:29.561Z,776
2023-02-03T10:52:12.407Z,776
2023-02-03T10:53:56.165Z,776
2023-02-03T10:55:39.755Z,776
2023-02-03T10:57:23.475Z,774
2023-02-03T10:59:07.316Z,776
2023-02-03T11:00:51.039Z,776
2023-02-03T11:02:34.703Z,776
2023-02-03T11:04:18.281Z,775
2023-02-03T11:06:02.119Z,775
2023-02-03T11:07:45.760Z,776
2023-02-03T11:09:29.344Z,776
2023-02-03T11:11:13.133Z,775
2023-02-03T11:12:56.733Z,776
2023-02-03T11:14:40.445Z,775
2023-02-03T11:16:24.144Z,776
2023-02-03T11:18:07.906Z,776
2023-02-03T11:19:51.541Z,775
2023-02-03T11:21:35.255Z,776
2023-02-03T11:23:18.960Z,776
2023-02-03T11:25:02.796Z,775
2023-02-03T11:26:46.335Z,776
2023-02-03T11:28:30.056Z,777
2023-02-03T11:30:13.760Z,776
2023-02-03T11:31:57.579Z,775
2023-02-03T11:33:41.174Z,773
2023-02-03T11:35:24.865Z,776
2023-02-03T11:37:08.588Z,776
2023-02-03T11:38:52.305Z,776
2023-02-03T11:40:36.053Z,776
2023-02-03T11:42:19.657Z,776
2023-02-03T11:44:03.355Z,776
2023-02-03T11:45:47.065Z,776
2023-02-03T11:47:30.764Z,776
2023-02-03T11:49:14.459Z,776
2023-02-03T11:50:58.163Z,776
2023-02-03T11:52:41.926Z,776
2023-02-03T11:54:25.573Z,776
2023-02-03T11:56:09.256Z,776
2023-02-03T11:57:52.993Z,776
2023-02-03T11:59:36.700Z,776
2023-02-03T12:01:20.368Z,775
2023-02-03T12:03:04.086Z,776
2023-02-03T12:04:47.769Z,776
2023-02-03T12:06:31.472Z,776
2023-02-03T12:08:15.183Z,776
2023-02-03T12:09:58.927Z,776
2023-02-03T12:11:42.781Z,775
2023-02-03T12:13:26.275Z,775
2023-02-03T12:15:09.991Z,776
2023-02-03T12:16:53.684Z,776
2023-02-03T12:18:37.405Z,776
2023-02-03T12:20:21.086Z,776
2023-02-03T12:22:04.786Z,776
2023-02-03T12:23:48.503Z,776
2023-02-03T12:25:32.191Z,775
2023-02-03T12:27:15.896Z,776
2023-02-03T12:28:59.591Z,776
2023-02-03T12:30:43.290Z,776
2023-02-03T12:32:26.977Z,775
2023-02-03T12:34:10.685Z,775
2023-02-03T12:35:54.451Z,685
2023-02-03T12:37:38.238Z,610
2023-02-03T12:39:21.939Z,561
2023-02-03T12:41:05.522Z,589
2023-02-03T12:42:49.202Z,628
2023-02-03T12:44:32.932Z,596
2023-02-03T12:46:16.626Z,667
2023-02-03T12:48:00.349Z,770
2023-02-03T12:51:27.717Z,597
2023-02-03T12:53:11.419Z,528
2023-02-03T12:54:55.110Z,475
2023-02-03T12:56:38.877Z,478
2023-02-03T12:58:22.509Z,491
2023-02-03T13:00:06.215Z,521
2023-02-03T13:01:49.917Z,486
2023-02-03T13:03:33.640Z,505
2023-02-03T13:05:17.335Z,573
2023-02-03T13:07:01.034Z,601
2023-02-03T13:08:44.732Z,594
2023-02-03T13:10:28.530Z,556
2023-02-03T13:12:12.159Z,543
2023-02-03T13:13:55.847Z,421
2023-02-03T13:15:39.584Z,454
2023-02-03T13:17:23.316Z,432
2023-02-03T13:19:06.951Z,436
2023-02-03T13:20:50.657Z,424
2023-02-03T13:24:18.054Z,515
2023-02-03T13:26:01.752Z,553
2023-02-03T13:27:45.457Z,516
2023-02-03T13:29:29.147Z,525
2023-02-03T13:31:12.857Z,584
2023-02-03T13:32:56.553Z,624
2023-02-03T13:34:40.265Z,585
2023-02-03T13:36:23.965Z,570
2023-02-03T13:38:07.671Z,552
2023-02-03T13:39:51.371Z,550
2023-02-03T13:41:35.138Z,481
2023-02-03T13:43:18.764Z,490
2023-02-03T13:45:02.459Z,500
2023-02-03T13:46:46.162Z,558
2023-02-03T13:48:29.876Z,492
2023-02-03T13:50:13.605Z,431
2023-02-03T13:51:57.343Z,438
2023-02-03T13:53:41.033Z,419
2023-02-03T13:55:24.676Z,387
2023-02-03T13:57:08.389Z,381
2023-02-03T13:58:52.141Z,380
2023-02-03T14:00:35.792Z,365
2023-02-03T14:02:19.491Z,328
2023-02-03T14:04:03.238Z,348
2023-02-03T14:05:46.900Z,358
2023-02-03T14:07:30.610Z,354
2023-02-03T14:09:14.299Z,363
2023-02-03T14:10:58.076Z,429
2023-02-03T14:12:41.774Z,461
2023-02-03T14:14:25.447Z,457
2023-02-03T14:16:09.214Z,433
2023-02-03T14:17:52.812Z,440
2023-02-03T14:19:36.602Z,414
2023-02-03T14:21:20.281Z,393
2023-02-03T14:23:03.919Z,416
2023-02-03T14:24:47.614Z,403
2023-02-03T14:26:31.319Z,373
2023-02-03T14:28:15.021Z,385
2023-02-03T14:29:58.728Z,373
2023-02-03T14:31:42.433Z,372
2023-02-03T14:33:26.198Z,347
2023-02-03T14:35:09.870Z,342
2023-02-03T14:36:53.548Z,327
2023-02-03T14:38:37.247Z,346
2023-02-03T14:40:20.954Z,346
2023-02-03T14:42:04.652Z,338
2023-02-03T14:43:48.363Z,312
2023-02-03T14:45:32.063Z,334
2023-02-03T14:48:59.457Z,346
2023-02-03T14:50:43.184Z,353
2023-02-03T14:52:26.883Z,317
2023-02-03T14:54:10.550Z,288
2023-02-03T14:55:54.257Z,254
2023-02-03T14:57:38.088Z,224
2023-02-03T14:59:21.664Z,216
2023-02-03T15:01:05.384Z,237
2023-02-03T15:02:49.081Z,259
2023-02-03T15:04:32.812Z,270
2023-02-03T15:06:16.492Z,277
2023-02-03T15:08:00.264Z,285
2023-02-03T15:09:43.941Z,274
2023-02-03T15:11:27.612Z,289
2023-02-03T15:13:11.270Z,254
2023-02-03T15:14:55.014Z,255
2023-02-03T15:16:38.676Z,233
2023-02-03T15:18:22.387Z,213
2023-02-03T15:20:06.184Z,201
2023-02-03T15:21:49.801Z,193
2023-02-03T15:23:33.510Z,189
2023-02-03T15:25:17.202Z,182
2023-02-03T15:27:00.991Z,165
2023-02-03T15:28:44.598Z,152
2023-02-03T15:30:28.306Z,153
2023-02-03T15:32:12.023Z,137
2023-02-03T15:33:55.780Z,129
2023-02-03T15:35:39.396Z,122
2023-02-03T15:37:23.124Z,120
2023-02-03T15:39:06.846Z,113
2023-02-03T15:40:50.588Z,96
2023-02-03T15:42:34.198Z,90
2023-02-03T15:44:17.901Z,84
2023-02-03T15:46:01.656Z,78
2023-02-03T15:47:45.336Z,77
2023-02-03T15:49:29.045Z,774
2023-02-03T15:51:12.695Z,774
2023-02-03T15:52:56.414Z,775
2023-02-03T15:54:40.101Z,775
2023-02-03T15:56:23.854Z,775
2023-02-03T15:58:07.524Z,774
2023-02-03T15:59:51.226Z,775
2023-02-03T16:01:34.973Z,775
2023-02-03T16:03:18.632Z,91
2023-02-03T16:05:02.359Z,84
2023-02-03T16:06:46.032Z,86
2023-02-03T16:08:29.743Z,78
2023-02-03T16:10:13.428Z,85
2023-02-03T16:11:57.135Z,68
2023-02-03T16:13:40.822Z,68
2023-02-03T16:15:24.539Z,59
2023-02-03T16:17:08.321Z,53
2023-02-03T16:18:51.940Z,46
2023-02-03T16:20:35.638Z,42
2023-02-03T16:22:19.352Z,41
2023-02-03T16:24:03.039Z,42
2023-02-03T16:25:46.747Z,42
2023-02-03T16:27:30.455Z,42
2023-02-03T16:29:14.165Z,41
2023-02-03T16:30:57.909Z,40
2023-02-03T16:32:41.570Z,39
2023-02-03T16:36:08.960Z,38
2023-02-03T16:37:52.658Z,38
2023-02-03T16:39:36.463Z,41
2023-02-03T16:41:20.064Z,43
2023-02-03T16:43:03.775Z,42
2023-02-03T16:44:47.509Z,37
2023-02-03T16:46:31.337Z,37
2023-02-03T16:48:14.891Z,37
2023-02-03T16:49:58.587Z,38
2023-02-03T16:51:42.262Z,37
2023-02-03T16:53:26.031Z,37
2023-02-03T16:55:09.695Z,37
2023-02-03T16:56:53.491Z,37
2023-02-03T16:58:37.095Z,33
2023-02-03T17:00:20.772Z,32
2023-02-03T17:02:04.481Z,44
2023-02-03T17:03:48.203Z,28
2023-02-03T17:05:31.958Z,26
2023-02-03T17:07:15.712Z,26
2023-02-03T17:08:59.384Z,26
2023-02-03T17:10:43.070Z,24
2023-02-03T17:12:26.696Z,29
2023-02-03T17:14:10.416Z,30
2023-02-03T17:15:54.144Z,44
2023-02-03T17:17:37.896Z,44
2023-02-03T17:19:21.490Z,43
2023-02-03T17:21:05.238Z,44
2023-02-03T17:22:48.913Z,45
2023-02-03T17:24:32.615Z,43
2023-02-03T17:26:16.316Z,44
2023-02-03T17:28:00.066Z,43
2023-02-03T17:29:43.714Z,44
2023-02-03T17:31:27.590Z,43
2023-02-03T17:33:11.166Z,33
2023-02-03T17:34:54.847Z,28
2023-02-03T17:36:38.669Z,33
2023-02-03T17:38:22.299Z,24
2023-02-03T17:53:55.559Z,35
2023-02-03T17:55:39.389Z,35
2023-02-03T17:57:23.017Z,32
2023-02-03T17:59:06.696Z,33
2023-02-03T18:00:50.448Z,26
2023-02-03T18:02:34.130Z,44
2023-02-03T18:04:17.727Z,43
2023-02-03T18:06:01.530Z,43
2023-02-03T18:07:45.178Z,775
2023-02-03T18:09:28.824Z,775
2023-02-03T18:11:12.506Z,774
2023-02-03T18:12:56.223Z,775
2023-02-03T18:14:39.945Z,775
2023-02-03T18:16:23.625Z,775
2023-02-03T18:18:07.403Z,773
2023-02-03T18:19:51.085Z,775
2023-02-03T18:21:34.760Z,775
2023-02-03T18:23:18.478Z,775
2023-02-03T18:25:02.203Z,775
2023-02-03T18:26:45.816Z,775
2023-02-03T18:28:29.563Z,775
2023-02-03T18:30:13.246Z,775
2023-02-03T18:31:56.946Z,775
2023-02-03T18:33:40.786Z,774
2023-02-03T18:35:24.523Z,776
2023-02-03T18:37:08.158Z,776
2023-02-03T18:38:51.804Z,775
2023-02-03T18:40:35.606Z,776
2023-02-03T18:42:19.340Z,775
2023-02-03T18:44:03.016Z,775
2023-02-03T18:45:46.701Z,775
2023-02-03T18:47:30.396Z,775
2023-02-03T18:49:13.974Z,775
2023-02-03T18:50:57.830Z,776
2023-02-03T18:52:41.467Z,775
2023-02-03T18:54:25.163Z,773
2023-02-03T18:56:08.971Z,775
2023-02-03T18:57:52.641Z,775
2023-02-03T18:59:36.168Z,775
2023-02-03T19:01:20.056Z,775
2023-02-03T19:03:03.565Z,776
2023-02-03T19:04:47.432Z,775
2023-02-03T19:06:31.222Z,775
2023-02-03T19:08:14.870Z,775
2023-02-03T19:09:58.535Z,776
2023-02-03T19:11:42.242Z,775
2023-02-03T19:13:25.943Z,775
2023-02-03T19:15:09.559Z,775
2023-02-03T19:16:53.342Z,775
2023-02-03T19:18:36.948Z,776
2023-02-03T19:20:20.645Z,775
2023-02-03T19:22:04.299Z,776
2023-02-03T19:23:48.018Z,776
2023-02-03T19:25:31.832Z,775
2023-02-03T19:27:15.424Z,775
2023-02-03T19:28:59.193Z,775
2023-02-03T19:30:42.979Z,773
2023-02-03T19:32:26.502Z,775
2023-02-03T19:34:10.393Z,775
2023-02-03T19:35:53.992Z,775
2023-02-03T19:37:37.705Z,775
2023-02-03T19:39:21.547Z,776
2023-02-03T19:41:05.031Z,776
2023-02-03T19:42:48.793Z,775
2023-02-03T19:44:32.549Z,775
2023-02-03T19:46:16.255Z,775
2023-02-03T19:47:59.873Z,776
2023-02-03T19:49:43.616Z,775
2023-02-03T19:51:27.242Z,775
2023-02-03T19:53:10.908Z,775
2023-02-03T19:54:54.642Z,776
2023-02-03T19:56:38.333Z,776
2023-02-03T19:58:22.021Z,775
2023-02-03T20:00:05.731Z,775
2023-02-03T20:01:49.440Z,775
2023-02-03T20:03:33.136Z,775
2023-02-03T20:05:16.836Z,775
2023-02-03T20:07:00.552Z,776
2023-02-03T20:08:44.386Z,775
2023-02-03T20:10:27.951Z,776
2023-02-03T20:12:11.662Z,776
2023-02-03T20:13:55.364Z,775
2023-02-03T20:15:39.056Z,775
2023-02-03T20:17:22.757Z,775
2023-02-03T20:19:06.522Z,775
2023-02-03T20:20:50.173Z,775
2023-02-03T20:22:33.864Z,775
2023-02-03T20:24:17.579Z,775
2023-02-03T20:26:01.274Z,775
2023-02-03T20:27:44.968Z,775
2023-02-03T20:29:28.676Z,775
2023-02-03T20:31:12.382Z,776
2023-02-03T20:32:56.125Z,776
2023-02-03T20:34:39.817Z,776
2023-02-03T20:36:23.498Z,773
2023-02-03T20:38:07.212Z,775
2023-02-03T20:39:50.878Z,775
2023-02-03T20:41:34.617Z,775
2023-02-03T20:43:18.293Z,775
2023-02-03T20:45:01.967Z,776
2023-02-03T20:46:45.669Z,775
2023-02-03T20:48:29.387Z,776
2023-02-03T20:50:13.099Z,776
2023-02-03T20:51:56.790Z,776
2023-02-03T20:53:40.491Z,776
2023-02-03T20:55:24.193Z,775
2023-02-03T20:57:07.895Z,776
2023-02-03T20:58:51.712Z,775
2023-02-03T21:00:35.368Z,5
2023-02-03T21:02:19.009Z,5
2023-02-03T21:04:02.715Z,6
2023-02-03T21:05:46.409Z,5
2023-02-03T21:07:30.114Z,5
2023-02-03T21:09:13.920Z,5
2023-02-03T21:10:57.502Z,4
2023-02-03T21:12:41.261Z,5
2023-02-03T21:14:24.957Z,6
2023-02-03T21:16:08.608Z,5
2023-02-03T21:17:52.328Z,5
2023-02-03T21:19:36.010Z,5
2023-02-03T21:21:19.726Z,5
2023-02-03T21:23:03.462Z,5
2023-02-03T21:24:47.180Z,5
2023-02-03T21:26:30.835Z,5
2023-02-03T21:28:14.539Z,6
2023-02-03T21:29:58.247Z,5
2023-02-03T21:31:41.929Z,5
2023-02-03T21:33:25.650Z,5
2023-02-03T21:35:09.373Z,5
2023-02-03T21:36:53.033Z,5
2023-02-03T21:38:36.787Z,4
2023-02-03T21:40:20.445Z,5
2023-02-03T21:42:04.188Z,5
2023-02-03T21:43:47.829Z,6
2023-02-03T21:45:31.544Z,5
2023-02-03T21:47:15.298Z,5
2023-02-03T21:48:58.969Z,5
2023-02-03T21:50:42.626Z,5
2023-02-03T21:52:26.361Z,5
2023-02-03T21:54:10.087Z,5
2023-02-03T21:55:53.767Z,5
2023-02-03T21:57:37.450Z,5
2023-02-03T21:59:21.146Z,5
2023-02-03T22:01:04.867Z,4
2023-02-03T22:02:48.575Z,5
2023-02-03T22:04:32.262Z,6
2023-02-03T22:06:15.967Z,4
2023-02-03T22:07:59.667Z,5
2023-02-03T22:09:43.366Z,5
2023-02-03T22:11:27.097Z,5
2023-02-03T22:13:10.760Z,5
2023-02-03T22:14:54.500Z,5
2023-02-03T22:16:38.191Z,5
2023-02-03T22:18:21.878Z,5
2023-02-03T22:20:05.606Z,5
2023-02-03T22:21:49.267Z,5
2023-02-03T22:23:32.974Z,5
2023-02-03T22:25:16.686Z,5
2023-02-03T22:27:00.403Z,5
2023-02-03T22:28:44.208Z,5
2023-02-03T22:30:27.789Z,5
2023-02-03T22:32:11.500Z,5
2023-02-03T22:33:55.200Z,5
2023-02-03T22:35:38.885Z,4
2023-02-03T22:37:22.594Z,5
2023-02-03T22:39:06.314Z,5
2023-02-03T22:40:50.001Z,5
2023-02-03T22:42:33.683Z,4
2023-02-03T22:44:17.418Z,5
2023-02-03T22:46:01.100Z,5
2023-02-03T22:47:44.802Z,5
2023-02-03T22:49:28.478Z,5
2023-02-03T22:51:12.217Z,5
2023-02-03T22:52:55.901Z,5
2023-02-03T22:54:39.596Z,5
2023-02-03T22:56:23.308Z,5
2023-02-03T22:58:06.994Z,5
2023-02-03T22:59:50.709Z,5
2023-02-03T23:01:34.421Z,5
2023-02-03T23:03:18.146Z,5
2023-02-03T23:05:01.492Z,5
2023-02-03T23:06:45.205Z,5
2023-02-03T23:08:28.906Z,5
2023-02-03T23:10:12.618Z,6
2023-02-03T23:11:56.337Z,5
2023-02-03T23:13:40.080Z,4
2023-02-03T23:15:23.737Z,5
2023-02-03T23:17:07.438Z,5
2023-02-03T23:18:51.124Z,5
2023-02-03T23:20:34.814Z,4
2023-02-03T23:22:18.520Z,84
2023-02-03T23:24:02.271Z,85
2023-02-03T23:25:45.915Z,81
2023-02-03T23:27:29.625Z,1
2023-02-03T23:29:13.325Z,0
2023-02-03T23:30:57.052Z,0
2023-02-03T23:32:40.720Z,1
2023-02-03T23:34:24.447Z,0
2023-02-03T23:36:08.121Z,0
2023-02-03T23:37:51.856Z,0
2023-02-03T23:39:35.527Z,0
2023-02-03T23:41:19.246Z,1
2023-02-03T23:43:02.941Z,1
2023-02-03T23:44:46.647Z,1
2023-02-03T23:46:30.369Z,1
2023-02-03T23:48:14.064Z,1
2023-02-03T23:49:57.753Z,0
2023-02-03T23:51:41.449Z,0
2023-02-03T23:53:25.145Z,0
2023-02-03T23:55:08.838Z,0
2023-02-03T23:56:52.538Z,0
2023-02-03T23:58:36.243Z,0
